createdAt,value
2022-08-09T00:00:31.538Z,0.00
2022-08-09T00:01:48.384Z,0.00
2022-08-09T00:02:31.685Z,0.00
2022-08-09T00:04:05.428Z,0.00
2022-08-09T00:04:35.003Z,0.00
2022-08-09T00:06:17.501Z,0.00
2022-08-09T00:06:32.019Z,0.00
2022-08-09T00:07:44.821Z,0.00
2022-08-09T00:08:33.017Z,0.00
2022-08-09T00:09:31.251Z,0.00
2022-08-09T00:10:30.546Z,0.00
2022-08-09T00:12:02.562Z,0.00
2022-08-09T00:12:34.592Z,0.00
2022-08-09T00:13:31.632Z,0.00
2022-08-09T00:14:38.285Z,0.00
2022-08-09T00:15:57.576Z,0.00
2022-08-09T00:16:36.715Z,0.00
2022-08-09T00:18:07.586Z,0.00
2022-08-09T00:18:35.553Z,0.00
2022-08-09T00:19:30.323Z,0.00
2022-08-09T00:20:31.550Z,0.00
2022-08-09T00:21:31.043Z,0.00
2022-08-09T00:22:35.151Z,0.00
2022-08-09T00:23:54.929Z,0.00
2022-08-09T00:24:32.264Z,0.00
2022-08-09T00:25:32.773Z,0.00
2022-08-09T00:26:35.550Z,0.00
2022-08-09T00:27:31.715Z,0.00
2022-08-09T00:28:31.196Z,0.00
2022-08-09T00:29:39.272Z,0.00
2022-08-09T00:30:31.201Z,0.00
2022-08-09T00:31:59.865Z,0.00
2022-08-09T00:32:33.041Z,0.00
2022-08-09T00:33:51.011Z,0.00
2022-08-09T00:34:32.711Z,0.00
2022-08-09T00:35:43.419Z,0.00
2022-08-09T00:36:31.233Z,0.00
2022-08-09T00:37:37.320Z,0.00
2022-08-09T00:38:31.273Z,0.00
2022-08-09T00:40:12.714Z,0.00
2022-08-09T00:40:31.293Z,0.00
2022-08-09T00:44:14.503Z,0.00
2022-08-09T00:44:14.814Z,0.00
2022-08-09T00:44:15.770Z,0.00
2022-08-09T00:44:32.212Z,0.00
2022-08-09T00:45:30.038Z,0.00
2022-08-09T00:46:57.552Z,0.00
2022-08-09T00:47:35.851Z,0.00
2022-08-09T00:48:32.083Z,0.00
2022-08-09T00:49:34.040Z,0.00
2022-08-09T00:52:05.105Z,0.00
2022-08-09T00:52:36.604Z,0.00
2022-08-09T00:53:51.800Z,0.00
2022-08-09T00:54:40.190Z,0.00
2022-08-09T00:56:03.179Z,0.00
2022-08-09T00:56:32.091Z,0.00
2022-08-09T00:57:49.777Z,0.00
2022-08-09T00:58:36.847Z,0.00
2022-08-09T00:59:41.601Z,0.00
2022-08-09T01:00:35.158Z,0.00
2022-08-09T01:01:44.950Z,0.00
2022-08-09T01:02:38.038Z,0.00
2022-08-09T01:03:30.893Z,0.00
2022-08-09T01:04:29.894Z,0.00
2022-08-09T01:05:50.777Z,0.00
2022-08-09T01:06:53.764Z,0.00
2022-08-09T01:08:00.397Z,0.00
2022-08-09T01:08:40.371Z,0.00
2022-08-09T01:09:53.608Z,0.00
2022-08-09T01:10:33.244Z,0.00
2022-08-09T01:11:29.755Z,0.00
2022-08-09T01:12:29.946Z,0.00
2022-08-09T01:13:31.021Z,0.00
2022-08-09T01:14:52.557Z,0.00
2022-08-09T01:15:37.158Z,0.00
2022-08-09T01:16:31.774Z,0.00
2022-08-09T01:17:30.278Z,0.00
2022-08-09T01:19:02.101Z,0.00
2022-08-09T01:19:42.503Z,0.00
2022-08-09T01:20:38.863Z,0.00
2022-08-09T01:21:36.219Z,0.00
2022-08-09T01:22:30.893Z,0.00
2022-08-09T01:24:01.310Z,0.00
2022-08-09T01:24:39.951Z,0.00
2022-08-09T01:25:41.702Z,0.00
2022-08-09T01:26:30.727Z,0.00
2022-08-09T01:27:29.615Z,0.00
2022-08-09T01:28:30.845Z,0.00
2022-08-09T01:29:41.312Z,0.00
2022-08-09T01:30:35.846Z,0.00
2022-08-09T01:32:31.430Z,0.00
2022-08-09T01:32:34.059Z,0.00
2022-08-09T01:33:39.065Z,0.00
2022-08-09T01:34:33.986Z,0.00
2022-08-09T01:35:38.770Z,0.00
2022-08-09T01:36:30.570Z,0.00
2022-08-09T01:38:05.680Z,0.00
2022-08-09T01:38:34.774Z,0.00
2022-08-09T01:39:29.768Z,0.00
2022-08-09T01:40:30.996Z,0.00
2022-08-09T01:41:30.554Z,0.00
2022-08-09T01:42:41.360Z,0.00
2022-08-09T01:43:32.459Z,0.00
2022-08-09T01:44:31.081Z,0.00
2022-08-09T01:47:05.681Z,0.00
2022-08-09T01:47:59.270Z,0.00
2022-08-09T01:49:10.546Z,0.00
2022-08-09T01:50:03.427Z,0.00
2022-08-09T01:53:21.595Z,0.00
2022-08-09T01:54:20.158Z,0.00
2022-08-09T01:55:29.013Z,0.00
2022-08-09T01:56:25.711Z,0.00
2022-08-09T01:57:20.530Z,0.00
2022-08-09T01:58:15.336Z,0.00
2022-08-09T01:59:32.339Z,0.00
2022-08-09T02:00:35.888Z,0.00
2022-08-09T02:01:58.588Z,0.00
2022-08-09T02:02:22.145Z,0.00
2022-08-09T02:03:28.498Z,0.00
2022-08-09T02:04:27.596Z,0.00
2022-08-09T02:05:37.952Z,0.00
2022-08-09T02:06:33.630Z,0.00
2022-08-09T02:08:38.748Z,0.00
2022-08-09T02:08:40.802Z,0.00
2022-08-09T02:09:25.907Z,0.00
2022-08-09T02:10:29.884Z,0.00
2022-08-09T02:11:42.055Z,0.00
2022-08-09T02:12:30.940Z,0.00
2022-08-09T02:13:37.660Z,0.00
2022-08-09T02:14:15.819Z,0.00
2022-08-09T02:15:36.178Z,0.00
2022-08-09T02:16:33.949Z,0.00
2022-08-09T02:17:59.507Z,0.00
2022-08-09T02:18:24.410Z,0.00
2022-08-09T02:21:34.383Z,0.00
2022-08-09T02:22:35.035Z,0.00
2022-08-09T02:23:31.837Z,0.00
2022-08-09T02:24:40.991Z,0.00
2022-08-09T02:25:52.672Z,0.00
2022-08-09T02:26:56.248Z,0.00
2022-08-09T02:27:58.245Z,0.00
2022-08-09T02:28:47.122Z,0.00
2022-08-09T02:31:58.838Z,0.00
2022-08-09T02:32:46.139Z,0.00
2022-08-09T02:34:06.429Z,0.00
2022-08-09T02:34:51.527Z,0.00
2022-08-09T02:36:01.576Z,0.00
2022-08-09T02:36:45.159Z,0.00
2022-08-09T02:37:45.253Z,0.00
2022-08-09T02:38:47.625Z,0.00
2022-08-09T02:39:55.302Z,0.00
2022-08-09T02:40:52.916Z,0.00
2022-08-09T02:41:45.381Z,0.00
2022-08-09T02:42:52.480Z,0.00
2022-08-09T02:43:53.794Z,0.00
2022-08-09T02:44:46.092Z,0.00
2022-08-09T02:45:47.093Z,0.00
2022-08-09T02:46:45.513Z,0.00
2022-08-09T02:47:57.689Z,0.00
2022-08-09T02:48:46.217Z,0.00
2022-08-09T02:49:44.913Z,0.00
2022-08-09T02:50:55.727Z,0.00
2022-08-09T02:51:56.762Z,0.00
2022-08-09T02:53:06.037Z,0.00
2022-08-09T02:54:01.651Z,0.00
2022-08-09T02:55:03.447Z,0.00
2022-08-09T02:55:57.699Z,0.00
2022-08-09T02:57:13.855Z,0.00
2022-08-09T02:59:04.141Z,0.00
2022-08-09T03:00:20.685Z,0.00
2022-08-09T03:01:06.328Z,0.00
2022-08-09T03:02:06.177Z,0.00
2022-08-09T03:03:07.186Z,0.00
2022-08-09T03:04:18.204Z,0.00
2022-08-09T03:05:07.567Z,0.00
2022-08-09T03:06:04.110Z,0.00
2022-08-09T03:07:13.847Z,0.00
2022-08-09T03:08:06.272Z,0.00
2022-08-09T03:09:03.119Z,0.00
2022-08-09T03:10:16.433Z,0.00
2022-08-09T03:11:04.054Z,0.00
2022-08-09T03:12:09.797Z,0.00
2022-08-09T03:13:08.503Z,0.00
2022-08-09T03:14:05.754Z,0.00
2022-08-09T03:15:04.077Z,0.00
2022-08-09T03:16:07.245Z,0.00
2022-08-09T03:17:06.242Z,0.00
2022-08-09T03:18:10.678Z,0.00
2022-08-09T03:19:03.029Z,0.00
2022-08-09T03:20:11.137Z,0.00
2022-08-09T03:21:13.421Z,0.00
2022-08-09T03:23:15.342Z,0.00
2022-08-09T03:25:25.824Z,0.00
2022-08-09T03:26:12.905Z,0.00
2022-08-09T03:27:04.100Z,4.00
2022-08-09T03:28:04.348Z,4.00
2022-08-09T03:29:09.806Z,0.00
2022-08-09T03:30:07.584Z,4.00
2022-08-09T03:31:10.111Z,4.00
2022-08-09T03:32:16.392Z,4.00
2022-08-09T03:33:17.443Z,4.00
2022-08-09T03:34:12.236Z,4.00
2022-08-09T03:35:14.760Z,8.00
2022-08-09T03:36:15.743Z,4.00
2022-08-09T03:37:55.289Z,4.00
2022-08-09T03:38:03.865Z,8.00
2022-08-09T03:39:02.873Z,8.00
2022-08-09T03:40:02.901Z,12.00
2022-08-09T03:41:03.822Z,12.00
2022-08-09T03:42:06.779Z,12.00
2022-08-09T03:43:02.751Z,12.00
2022-08-09T03:44:08.921Z,20.00
2022-08-09T03:45:03.724Z,24.00
2022-08-09T03:46:19.441Z,24.00
2022-08-09T03:47:03.705Z,28.00
2022-08-09T03:48:02.647Z,32.00
2022-08-09T03:49:04.377Z,36.00
2022-08-09T03:50:03.937Z,40.00
2022-08-09T03:51:03.053Z,44.00
2022-08-09T03:52:07.366Z,52.00
2022-08-09T03:53:05.146Z,60.00
2022-08-09T03:54:06.279Z,64.00
2022-08-09T03:55:03.634Z,68.00
2022-08-09T03:56:07.606Z,80.00
2022-08-09T03:57:04.390Z,88.00
2022-08-09T03:58:16.131Z,96.00
2022-08-09T03:59:03.571Z,104.00
2022-08-09T04:00:04.456Z,116.00
2022-08-09T04:01:06.345Z,124.00
2022-08-09T04:02:07.448Z,136.00
2022-08-09T04:03:03.551Z,148.00
2022-08-09T04:04:05.803Z,156.00
2022-08-09T04:05:26.643Z,172.00
2022-08-09T04:06:08.284Z,184.00
2022-08-09T04:07:14.455Z,200.00
2022-08-09T04:08:03.638Z,208.00
2022-08-09T04:09:42.078Z,224.00
2022-08-09T04:10:03.696Z,240.00
2022-08-09T04:11:06.363Z,256.00
2022-08-09T04:12:06.788Z,272.00
2022-08-09T04:13:13.708Z,288.00
2022-08-09T04:14:52.924Z,304.00
2022-08-09T04:15:11.173Z,320.00
2022-08-09T04:16:19.690Z,336.00
2022-08-09T04:17:12.997Z,352.00
2022-08-09T04:18:08.890Z,368.00
2022-08-09T04:19:11.143Z,388.00
2022-08-09T04:20:05.523Z,408.00
2022-08-09T04:21:03.865Z,424.00
2022-08-09T04:22:02.663Z,440.00
2022-08-09T04:23:10.196Z,460.00
2022-08-09T04:24:09.308Z,480.00
2022-08-09T04:25:07.624Z,496.00
2022-08-09T04:26:03.231Z,516.00
2022-08-09T04:27:11.761Z,536.00
2022-08-09T04:28:10.661Z,556.00
2022-08-09T04:29:07.889Z,572.00
2022-08-09T04:30:03.371Z,592.00
2022-08-09T04:31:13.113Z,612.00
2022-08-09T04:32:12.070Z,632.00
2022-08-09T04:33:11.059Z,656.00
2022-08-09T04:34:05.932Z,676.00
2022-08-09T04:35:10.570Z,704.00
2022-08-09T04:36:03.266Z,728.00
2022-08-09T04:37:02.157Z,748.00
2022-08-09T04:38:06.244Z,780.00
2022-08-09T04:39:03.293Z,804.00
2022-08-09T04:40:07.319Z,832.00
2022-08-09T04:41:03.604Z,860.00
2022-08-09T04:42:02.761Z,888.00
2022-08-09T04:43:06.010Z,920.00
2022-08-09T04:44:07.298Z,952.00
2022-08-09T04:45:03.199Z,980.00
2022-08-09T04:46:03.593Z,1016.00
2022-08-09T04:47:04.652Z,1044.00
2022-08-09T04:48:10.447Z,1080.00
2022-08-09T04:49:03.054Z,1112.00
2022-08-09T04:50:02.061Z,1144.00
2022-08-09T04:51:10.825Z,1176.00
2022-08-09T04:52:03.026Z,1208.00
2022-08-09T04:53:13.196Z,1240.00
2022-08-09T04:54:09.423Z,1272.00
2022-08-09T04:55:09.360Z,1308.00
2022-08-09T04:56:03.121Z,1340.00
2022-08-09T04:57:03.753Z,1380.00
2022-08-09T04:58:09.523Z,1412.00
2022-08-09T04:59:08.015Z,1452.00
2022-08-09T05:00:07.977Z,1492.00
2022-08-09T05:01:03.054Z,1528.00
2022-08-09T05:02:05.066Z,1572.00
2022-08-09T05:03:13.323Z,1604.00
2022-08-09T05:04:03.077Z,1644.00
2022-08-09T05:05:09.604Z,1680.00
2022-08-09T05:06:07.654Z,1720.00
2022-08-09T05:07:02.867Z,1760.00
2022-08-09T05:08:01.866Z,1800.00
2022-08-09T05:09:05.859Z,1840.00
2022-08-09T05:10:02.766Z,1876.00
2022-08-09T05:11:02.441Z,1920.00
2022-08-09T05:12:01.747Z,1960.00
2022-08-09T05:13:03.871Z,2000.00
2022-08-09T05:14:01.726Z,2044.00
2022-08-09T05:15:03.263Z,2092.00
2022-08-09T05:16:01.699Z,2132.00
2022-08-09T05:17:01.690Z,2180.00
2022-08-09T05:18:37.819Z,2220.00
2022-08-09T05:19:02.949Z,2264.00
2022-08-09T05:20:01.681Z,2304.00
2022-08-09T05:21:01.657Z,2344.00
2022-08-09T05:22:01.647Z,2392.00
2022-08-09T05:23:54.625Z,2436.00
2022-08-09T05:24:05.288Z,2476.00
2022-08-09T05:25:02.565Z,2516.00
2022-08-09T05:26:01.600Z,2560.00
2022-08-09T05:27:01.590Z,2604.00
2022-08-09T05:28:01.582Z,2648.00
2022-08-09T05:29:01.569Z,2692.00
2022-08-09T05:30:01.579Z,2732.00
2022-08-09T05:31:01.554Z,2768.00
2022-08-09T05:32:02.543Z,2812.00
2022-08-09T05:33:01.831Z,2852.00
2022-08-09T05:34:01.520Z,2888.00
2022-08-09T05:35:01.511Z,2928.00
2022-08-09T05:36:01.508Z,2972.00
2022-08-09T05:37:05.298Z,3008.00
2022-08-09T05:38:02.483Z,3052.00
2022-08-09T05:39:01.465Z,3096.00
2022-08-09T05:40:01.515Z,3136.00
2022-08-09T05:41:01.451Z,3168.00
2022-08-09T05:42:04.466Z,3212.00
2022-08-09T05:43:01.473Z,3252.00
2022-08-09T05:44:01.415Z,3292.00
2022-08-09T05:45:01.403Z,3328.00
2022-08-09T05:46:01.388Z,3364.00
2022-08-09T05:47:01.386Z,3408.00
2022-08-09T05:48:01.614Z,3456.00
2022-08-09T05:49:01.362Z,3504.00
2022-08-09T05:50:25.926Z,3544.00
2022-08-09T05:51:30.226Z,3584.00
2022-08-09T05:52:02.327Z,3620.00
2022-08-09T05:53:01.315Z,3656.00
2022-08-09T05:54:01.320Z,3708.00
2022-08-09T05:55:02.991Z,3744.00
2022-08-09T05:56:02.291Z,3780.00
2022-08-09T05:57:01.278Z,3816.00
2022-08-09T05:58:04.068Z,3848.00
2022-08-09T05:59:01.257Z,3888.00
2022-08-09T06:00:01.242Z,3932.00
2022-08-09T06:01:01.239Z,3972.00
2022-08-09T06:02:02.057Z,4008.00
2022-08-09T06:03:01.398Z,4036.00
2022-08-09T06:04:01.286Z,4068.00
2022-08-09T06:05:01.345Z,4108.00
2022-08-09T06:06:05.691Z,4140.00
2022-08-09T06:07:02.194Z,4172.00
2022-08-09T06:08:05.303Z,4204.00
2022-08-09T06:09:02.157Z,4236.00
2022-08-09T06:10:03.130Z,4272.00
2022-08-09T06:11:01.159Z,4308.00
2022-08-09T06:12:01.144Z,4340.00
2022-08-09T06:13:03.107Z,4364.00
2022-08-09T06:14:02.157Z,4416.00
2022-08-09T06:15:02.676Z,4468.00
2022-08-09T06:16:01.546Z,4500.00
2022-08-09T06:17:09.150Z,4524.00
2022-08-09T06:18:02.059Z,4556.00
2022-08-09T06:19:01.055Z,4604.00
2022-08-09T06:20:01.025Z,4628.00
2022-08-09T06:21:01.015Z,4648.00
2022-08-09T06:22:01.018Z,4680.00
2022-08-09T06:23:01.001Z,4716.00
2022-08-09T06:24:02.699Z,4736.00
2022-08-09T06:25:00.996Z,4768.00
2022-08-09T06:26:01.412Z,4800.00
2022-08-09T06:27:00.975Z,4836.00
2022-08-09T06:28:00.965Z,4876.00
2022-08-09T06:29:05.278Z,4912.00
2022-08-09T06:30:08.739Z,4936.00
2022-08-09T06:31:01.938Z,4964.00
2022-08-09T06:32:18.373Z,4984.00
2022-08-09T06:33:30.261Z,5008.00
2022-08-09T06:34:01.903Z,5032.00
2022-08-09T06:35:00.876Z,5060.00
2022-08-09T06:36:00.856Z,5088.00
2022-08-09T06:37:00.866Z,5112.00
2022-08-09T06:38:06.116Z,5152.00
2022-08-09T06:39:02.740Z,5172.00
2022-08-09T06:40:16.354Z,5192.00
2022-08-09T06:41:01.832Z,5220.00
2022-08-09T06:42:08.988Z,5240.00
2022-08-09T06:43:02.000Z,5264.00
2022-08-09T06:44:00.779Z,5272.00
2022-08-09T06:46:04.348Z,5300.00
2022-08-09T06:46:05.953Z,5316.00
2022-08-09T06:47:01.907Z,5336.00
2022-08-09T06:48:01.639Z,5356.00
2022-08-09T06:49:00.757Z,5384.00
2022-08-09T06:50:13.756Z,5388.00
2022-08-09T06:51:05.118Z,5400.00
2022-08-09T06:52:00.694Z,5392.00
2022-08-09T06:53:00.695Z,5396.00
2022-08-09T06:54:01.188Z,5404.00
2022-08-09T06:55:00.658Z,5420.00
2022-08-09T06:56:01.658Z,5436.00
2022-08-09T06:57:00.641Z,5452.00
2022-08-09T06:58:04.431Z,5456.00
2022-08-09T07:00:49.653Z,5464.00
2022-08-09T07:00:49.990Z,5476.00
2022-08-09T07:01:02.755Z,5484.00
2022-08-09T07:02:04.386Z,5492.00
2022-08-09T07:03:01.752Z,5500.00
2022-08-09T07:04:03.872Z,5500.00
2022-08-09T07:05:01.740Z,5504.00
2022-08-09T07:06:04.761Z,5504.00
2022-08-09T07:07:04.935Z,5512.00
2022-08-09T07:08:02.040Z,5532.00
2022-08-09T07:09:01.711Z,5556.00
2022-08-09T07:10:15.653Z,5552.00
2022-08-09T07:11:03.786Z,5552.00
2022-08-09T07:12:01.643Z,5556.00
2022-08-09T07:13:18.515Z,5564.00
2022-08-09T07:14:05.062Z,5568.00
2022-08-09T07:15:53.186Z,5584.00
2022-08-09T07:16:43.512Z,5592.00
2022-08-09T07:17:02.589Z,5588.00
2022-08-09T07:18:03.207Z,5620.00
2022-08-09T07:19:01.633Z,5624.00
2022-08-09T07:20:01.617Z,5648.00
2022-08-09T07:21:01.600Z,5640.00
2022-08-09T07:22:02.138Z,5652.00
2022-08-09T07:23:02.585Z,5652.00
2022-08-09T07:24:02.560Z,5668.00
2022-08-09T07:25:01.536Z,5668.00
2022-08-09T07:26:01.557Z,5676.00
2022-08-09T07:27:01.515Z,5680.00
2022-08-09T07:28:04.181Z,5668.00
2022-08-09T07:29:13.116Z,5732.00
2022-08-09T07:30:02.485Z,5748.00
2022-08-09T07:31:02.312Z,5748.00
2022-08-09T07:32:01.437Z,5768.00
2022-08-09T07:33:01.450Z,5760.00
2022-08-09T07:34:02.658Z,5756.00
2022-08-09T07:35:02.764Z,5760.00
2022-08-09T07:36:02.457Z,5756.00
2022-08-09T07:37:02.451Z,5764.00
2022-08-09T07:38:01.426Z,5772.00
2022-08-09T07:39:02.401Z,5780.00
2022-08-09T07:40:01.542Z,5796.00
2022-08-09T07:41:11.560Z,5836.00
2022-08-09T07:42:03.367Z,5848.00
2022-08-09T07:43:01.395Z,5856.00
2022-08-09T07:44:01.401Z,5868.00
2022-08-09T07:45:06.305Z,5872.00
2022-08-09T07:46:04.230Z,5904.00
2022-08-09T07:47:02.213Z,5896.00
2022-08-09T07:48:04.077Z,5920.00
2022-08-09T07:49:01.336Z,5908.00
2022-08-09T07:50:05.435Z,5932.00
2022-08-09T07:51:10.074Z,5928.00
2022-08-09T07:52:05.905Z,5920.00
2022-08-09T07:53:03.069Z,5948.00
2022-08-09T07:54:06.842Z,5936.00
2022-08-09T07:55:02.318Z,5944.00
2022-08-09T07:56:03.256Z,5944.00
2022-08-09T07:57:01.246Z,5936.00
2022-08-09T07:58:01.231Z,5932.00
2022-08-09T07:59:01.256Z,5940.00
2022-08-09T08:00:02.943Z,5952.00
2022-08-09T08:01:06.218Z,5964.00
2022-08-09T08:02:02.314Z,5956.00
2022-08-09T08:03:01.201Z,5960.00
2022-08-09T08:04:01.156Z,5956.00
2022-08-09T08:05:01.157Z,5944.00
2022-08-09T08:06:01.168Z,5956.00
2022-08-09T08:07:27.236Z,5948.00
2022-08-09T08:08:44.013Z,5932.00
2022-08-09T08:09:05.342Z,5960.00
2022-08-09T08:10:08.824Z,5960.00
2022-08-09T08:11:15.417Z,5952.00
2022-08-09T08:12:09.918Z,5964.00
2022-08-09T08:13:03.667Z,5960.00
2022-08-09T08:14:02.125Z,5956.00
2022-08-09T08:15:02.169Z,5948.00
2022-08-09T08:16:01.087Z,5960.00
2022-08-09T08:17:08.765Z,5948.00
2022-08-09T08:18:02.060Z,5944.00
2022-08-09T08:19:02.665Z,5952.00
2022-08-09T08:20:01.087Z,5952.00
2022-08-09T08:21:01.087Z,5964.00
2022-08-09T08:22:00.986Z,5968.00
2022-08-09T08:23:03.410Z,5952.00
2022-08-09T08:24:11.734Z,5960.00
2022-08-09T08:25:02.063Z,5952.00
2022-08-09T08:26:06.582Z,5944.00
2022-08-09T08:27:02.046Z,5952.00
2022-08-09T08:28:00.933Z,5956.00
2022-08-09T08:29:00.960Z,5952.00
2022-08-09T08:30:04.319Z,5940.00
2022-08-09T08:31:08.910Z,5936.00
2022-08-09T08:32:06.022Z,5936.00
2022-08-09T08:33:00.944Z,5948.00
2022-08-09T08:34:00.908Z,5948.00
2022-08-09T08:35:00.900Z,5944.00
2022-08-09T08:36:03.600Z,5944.00
2022-08-09T08:37:01.835Z,5956.00
2022-08-09T08:38:09.253Z,5960.00
2022-08-09T08:39:01.893Z,5940.00
2022-08-09T08:40:00.893Z,5924.00
2022-08-09T08:41:01.721Z,5956.00
2022-08-09T08:42:00.817Z,5944.00
2022-08-09T08:43:00.873Z,5916.00
2022-08-09T08:44:03.422Z,5924.00
2022-08-09T08:45:11.747Z,5924.00
2022-08-09T08:46:25.001Z,5928.00
2022-08-09T08:47:04.485Z,5928.00
2022-08-09T08:48:01.792Z,5936.00
2022-08-09T08:49:00.776Z,5924.00
2022-08-09T08:50:02.625Z,5916.00
2022-08-09T08:51:00.768Z,5932.00
2022-08-09T08:52:04.003Z,5900.00
2022-08-09T08:53:02.149Z,5916.00
2022-08-09T08:54:04.652Z,5916.00
2022-08-09T08:55:02.053Z,5924.00
2022-08-09T08:56:01.478Z,5944.00
2022-08-09T08:57:00.818Z,5940.00
2022-08-09T08:58:00.996Z,5908.00
2022-08-09T08:59:01.869Z,5912.00
2022-08-09T09:00:01.895Z,5904.00
2022-08-09T09:01:00.696Z,5904.00
2022-08-09T09:02:00.884Z,5916.00
2022-08-09T09:03:08.588Z,5908.00
2022-08-09T09:04:02.813Z,5908.00
2022-08-09T09:05:02.981Z,5912.00
2022-08-09T09:06:04.864Z,5916.00
2022-08-09T09:07:01.596Z,5904.00
2022-08-09T09:08:00.596Z,5880.00
2022-08-09T09:09:00.592Z,5896.00
2022-08-09T09:10:04.934Z,5896.00
2022-08-09T09:11:01.582Z,5888.00
2022-08-09T09:12:00.566Z,5880.00
2022-08-09T09:13:00.563Z,5888.00
2022-08-09T09:14:01.565Z,5888.00
2022-08-09T09:15:00.585Z,5876.00
2022-08-09T09:16:00.485Z,5876.00
2022-08-09T09:17:00.504Z,5856.00
2022-08-09T09:18:00.548Z,5868.00
2022-08-09T09:20:02.478Z,5852.00
2022-08-09T09:21:00.474Z,5848.00
2022-08-09T09:22:03.624Z,5836.00
2022-08-09T09:23:01.755Z,5840.00
2022-08-09T09:24:05.446Z,5832.00
2022-08-09T09:26:02.486Z,5824.00
2022-08-09T09:26:12.165Z,5832.00
2022-08-09T09:27:02.423Z,5836.00
2022-08-09T09:28:04.274Z,5820.00
2022-08-09T09:29:03.380Z,5800.00
2022-08-09T09:30:13.870Z,5804.00
2022-08-09T09:31:02.397Z,5808.00
2022-08-09T09:32:03.828Z,5792.00
2022-08-09T09:33:01.461Z,5800.00
2022-08-09T09:34:00.410Z,5792.00
2022-08-09T09:35:00.321Z,5780.00
2022-08-09T09:36:02.216Z,5772.00
2022-08-09T09:37:00.308Z,5760.00
2022-08-09T09:38:00.300Z,5744.00
2022-08-09T09:39:00.294Z,5744.00
2022-08-09T09:40:00.679Z,5748.00
2022-08-09T09:41:00.314Z,5740.00
2022-08-09T09:42:00.291Z,5728.00
2022-08-09T09:43:00.258Z,5732.00
2022-08-09T09:44:10.641Z,5728.00
2022-08-09T09:45:01.235Z,5728.00
2022-08-09T09:47:02.274Z,5720.00
2022-08-09T09:48:00.245Z,5712.00
2022-08-09T09:49:00.195Z,5712.00
2022-08-09T09:50:14.780Z,5708.00
2022-08-09T09:51:01.168Z,5724.00
2022-08-09T09:52:00.175Z,5724.00
2022-08-09T09:53:00.474Z,5708.00
2022-08-09T09:54:03.965Z,5720.00
2022-08-09T09:55:01.124Z,5744.00
2022-08-09T09:56:04.526Z,5732.00
2022-08-09T09:58:02.278Z,5744.00
2022-08-09T09:58:16.498Z,5740.00
2022-08-09T09:59:01.083Z,5724.00
2022-08-09T10:00:00.090Z,5728.00
2022-08-09T10:01:00.271Z,5736.00
2022-08-09T10:02:00.070Z,5752.00
2022-08-09T10:03:00.197Z,5752.00
2022-08-09T10:04:04.283Z,5740.00
2022-08-09T10:05:01.033Z,5716.00
2022-08-09T10:06:03.406Z,5700.00
2022-08-09T10:07:03.683Z,5704.00
2022-08-09T10:08:26.012Z,5680.00
2022-08-09T10:09:01.007Z,5680.00
2022-08-09T10:09:59.983Z,5688.00
2022-08-09T10:11:00.028Z,5700.00
2022-08-09T10:12:11.626Z,5668.00
2022-08-09T10:13:00.967Z,5644.00
2022-08-09T10:13:59.986Z,5652.00
2022-08-09T10:14:59.971Z,5668.00
2022-08-09T10:16:55.499Z,5668.00
2022-08-09T10:17:24.113Z,5636.00
2022-08-09T10:18:02.013Z,5632.00
2022-08-09T10:19:00.079Z,5644.00
2022-08-09T10:20:00.221Z,5636.00
2022-08-09T10:20:59.899Z,5632.00
2022-08-09T10:22:00.331Z,5636.00
2022-08-09T10:23:00.775Z,5656.00
2022-08-09T10:24:00.868Z,5656.00
2022-08-09T10:24:59.989Z,5640.00
2022-08-09T10:26:06.516Z,5664.00
2022-08-09T10:27:00.828Z,5672.00
2022-08-09T10:27:59.853Z,5688.00
2022-08-09T10:29:32.724Z,5700.00
2022-08-09T10:30:27.263Z,5720.00
2022-08-09T10:33:01.794Z,5812.00
2022-08-09T10:34:09.907Z,5788.00
2022-08-09T10:35:00.793Z,5736.00
2022-08-09T10:36:00.994Z,5740.00
2022-08-09T10:36:59.737Z,5740.00
2022-08-09T10:38:01.570Z,5732.00
2022-08-09T10:39:01.388Z,5756.00
2022-08-09T10:40:01.181Z,5756.00
2022-08-09T10:40:59.982Z,5744.00
2022-08-09T10:42:00.112Z,5760.00
2022-08-09T10:42:59.693Z,5780.00
2022-08-09T10:44:01.965Z,5796.00
2022-08-09T10:45:00.738Z,5792.00
2022-08-09T10:46:00.162Z,5788.00
2022-08-09T10:47:00.954Z,5776.00
2022-08-09T10:48:26.518Z,5748.00
2022-08-09T10:49:00.639Z,5708.00
2022-08-09T10:49:59.671Z,5708.00
2022-08-09T10:50:59.703Z,5732.00
2022-08-09T10:51:59.614Z,6284.00
2022-08-09T10:53:00.005Z,6372.00
2022-08-09T10:53:59.605Z,6420.00
2022-08-09T10:55:00.573Z,6524.00
2022-08-09T10:56:00.144Z,6480.00
2022-08-09T10:56:59.549Z,6460.00
2022-08-09T10:58:00.185Z,6536.00
2022-08-09T10:58:59.551Z,6596.00
2022-08-09T11:00:01.950Z,6600.00
2022-08-09T11:03:02.610Z,6584.00
2022-08-09T11:03:11.411Z,6596.00
2022-08-09T11:03:14.572Z,6560.00
2022-08-09T11:04:04.087Z,6536.00
2022-08-09T11:05:01.537Z,6032.00
2022-08-09T11:05:59.963Z,6016.00
2022-08-09T11:06:59.975Z,5948.00
2022-08-09T11:07:59.623Z,5948.00
2022-08-09T11:09:15.424Z,5964.00
2022-08-09T11:10:00.455Z,5908.00
2022-08-09T11:11:00.867Z,5880.00
2022-08-09T11:12:00.447Z,5916.00
2022-08-09T11:12:59.464Z,5924.00
2022-08-09T11:13:59.445Z,5936.00
2022-08-09T11:14:59.383Z,5928.00
2022-08-09T11:16:06.417Z,5940.00
2022-08-09T11:17:00.381Z,5888.00
2022-08-09T11:18:03.748Z,5872.00
2022-08-09T11:18:59.349Z,5948.00
2022-08-09T11:20:19.947Z,5992.00
2022-08-09T11:21:00.417Z,5984.00
2022-08-09T11:22:05.525Z,5956.00
2022-08-09T11:23:00.333Z,5908.00
2022-08-09T11:23:59.558Z,5832.00
2022-08-09T11:25:00.080Z,5372.00
2022-08-09T11:26:00.268Z,6024.00
2022-08-09T11:26:59.374Z,6216.00
2022-08-09T11:28:05.018Z,6288.00
2022-08-09T11:29:00.316Z,6136.00
2022-08-09T11:30:05.821Z,6272.00
2022-08-09T11:31:00.248Z,5936.00
2022-08-09T11:31:59.284Z,5084.00
2022-08-09T11:32:59.344Z,4848.00
2022-08-09T11:33:59.250Z,5436.00
2022-08-09T11:34:59.288Z,6104.00
2022-08-09T11:35:59.229Z,6084.00
2022-08-09T11:36:59.198Z,5208.00
2022-08-09T11:37:59.227Z,5824.00
2022-08-09T11:38:59.184Z,5928.00
2022-08-09T11:40:00.285Z,5848.00
2022-08-09T11:40:59.211Z,5820.00
2022-08-09T11:41:59.235Z,5832.00
2022-08-09T11:42:59.140Z,5320.00
2022-08-09T11:43:59.147Z,4420.00
2022-08-09T11:44:59.142Z,4368.00
2022-08-09T11:45:59.205Z,4356.00
2022-08-09T11:46:59.203Z,5508.00
2022-08-09T11:48:06.572Z,5388.00
2022-08-09T11:49:05.228Z,4648.00
2022-08-09T11:50:53.185Z,4636.00
2022-08-09T11:52:56.385Z,4944.00
2022-08-09T11:53:03.966Z,5588.00
2022-08-09T11:53:59.154Z,5680.00
2022-08-09T11:54:04.457Z,5732.00
2022-08-09T11:55:01.083Z,5752.00
2022-08-09T11:56:02.839Z,5780.00
2022-08-09T11:56:59.061Z,5872.00
2022-08-09T11:58:00.471Z,5916.00
2022-08-09T11:59:00.069Z,5996.00
2022-08-09T11:59:59.102Z,6088.00
2022-08-09T12:00:59.058Z,6120.00
2022-08-09T12:02:18.262Z,6008.00
2022-08-09T12:03:00.040Z,4864.00
2022-08-09T12:04:00.038Z,4924.00
2022-08-09T12:04:59.968Z,6020.00
2022-08-09T12:05:58.980Z,6048.00
2022-08-09T12:06:58.997Z,6084.00
2022-08-09T12:07:58.932Z,6140.00
2022-08-09T12:08:58.912Z,6204.00
2022-08-09T12:09:58.935Z,6284.00
2022-08-09T12:10:58.913Z,6380.00
2022-08-09T12:12:02.978Z,6408.00
2022-08-09T12:12:58.880Z,6380.00
2022-08-09T12:14:09.507Z,6368.00
2022-08-09T12:15:08.154Z,6324.00
2022-08-09T12:15:59.910Z,6332.00
2022-08-09T12:16:58.860Z,6364.00
2022-08-09T12:17:58.860Z,6360.00
2022-08-09T12:18:58.811Z,6340.00
2022-08-09T12:19:59.866Z,6292.00
2022-08-09T12:20:59.146Z,6232.00
2022-08-09T12:21:58.818Z,6172.00
2022-08-09T12:22:58.772Z,5864.00
2022-08-09T12:24:09.215Z,5924.00
2022-08-09T12:24:59.808Z,4760.00
2022-08-09T12:25:58.830Z,4944.00
2022-08-09T12:29:11.258Z,5824.00
2022-08-09T12:29:12.463Z,5028.00
2022-08-09T12:29:14.327Z,6252.00
2022-08-09T12:30:29.820Z,5556.00
2022-08-09T12:31:00.725Z,6100.00
2022-08-09T12:32:03.244Z,6232.00
2022-08-09T12:32:58.745Z,6252.00
2022-08-09T12:34:01.381Z,6208.00
2022-08-09T12:34:58.722Z,6208.00
2022-08-09T12:35:58.713Z,6200.00
2022-08-09T12:37:21.711Z,6140.00
2022-08-09T12:37:59.718Z,6160.00
2022-08-09T12:38:58.678Z,6304.00
2022-08-09T12:39:58.659Z,6404.00
2022-08-09T12:40:58.666Z,6376.00
2022-08-09T12:41:58.639Z,6416.00
2022-08-09T12:42:58.696Z,6460.00
2022-08-09T12:44:06.392Z,6400.00